Griswold, Connecticut
Current Conditions -  °F | °C
As of 5:52 AM on Thursday 27 Nov 2014 (Local Time) from KIJD Reporting Station
Overcast Overcast  
Wind Chill: 28°   Ceiling: 1700
Heat Index: 34°   Visibility: 10mi
Dew Point: 29°   Wind: 7mph
Humidity: 82%   Direction: NA
Pressure: 29.87"   Gusts: NA
Location:  41.6042°N, 71.9701°W
Report Text: KIJD 271052Z AUTO VRB06KT 10SM OVC017 01/M02 A2987 RMK AO2 SLP117 T00111017
Loading
Personal Weather Stations






























Interactive Weather Map New forecast layout! Learn more

10-Day Weather Forecast

Advertisements
Track Severe Weather on mobile